Weather observations for the past three days for
Valley City
Metric (Imperial)
Date Time (cdt) Wind (kph) Vis. (km) Weather Sky Cond. Temperature (ºC) Relative Humidity Wind Chill (°C) Heat Index (°C) Pressure Precipitation (cm)
Air Dwpt 6 hour altimeter (cm) sea level (mb) 1 hr 3 hr 6 hr
Max. Min.
07 02:35 S 11 16.09 NULL NULL -3 -7 74% -7 75.9 0.0
07 02:15 S 9 16.09 Fair CLR -3 -6 80% -6 75.9 0.0
07 01:55 S 13 16.09 Fair CLR -3 -6 80% -7 75.9 0.0
07 01:35 S 15 16.09 Fair CLR -2 -6 74% -6 75.92 0.0
07 01:15 S 15 16.09 Fair CLR -2 -6 74% -6 75.92 0.0
07 00:55 S 11 16.09 NULL NULL -2 -7 69% -6 75.92 0.0
07 00:35 S 15 16.09 NULL NULL -2 -7 69% -6 75.92 0.0
07 00:15 S 13 16.09 Fair CLR -1 -7 64% -5 75.95 0.0
06 23:55 S 13 16.09 Fair CLR 0 -7 60% -4 75.95 0.0
06 23:35 S 11 16.09 A Few Clouds FEW090 0 -7 60% -3 75.95 0.0
06 23:15 S 9 16.09 A Few Clouds FEW100 2 -8 48% -0 75.97 0.0
06 22:55 S 7 16.09 NULL NULL 1 -7 56% -1 75.97 0.0
06 22:35 S 6 16.09 NULL NULL 2 -7 52% 76 0.0
06 22:15 S 9 16.09 Mostly Cloudy FEW080 BKN095 2 -7 52% -0 76 0.0
06 21:55 S 7 16.09 Overcast SCT080 OVC090 4 -7 45% 2 76 0.0
06 21:35 S 7 16.09 Overcast FEW075 OVC090 4 -6 48% 2 76 0.0
06 21:15 Calm 16.09 Overcast SCT060 SCT075 OVC090 5 -6 45% 76 0.0
06 20:55 S 6 16.09 Overcast FEW060 SCT070 OVC090 5 -6 45% 76.02 0.0
06 20:35 Calm 16.09 Overcast FEW065 OVC085 6 -6 42% 76.02 0.0
06 20:15 Calm 16.09 Overcast OVC080 6 -7 39% 76.02 0.0
06 19:55 Calm 16.09 Overcast OVC075 6 -7 39% 76.02 0.0
06 19:35 W 6 16.09 Overcast SCT060 BKN070 OVC080 6 -7 39% 76.05 0.0
06 19:15 W 9 16.09 Overcast BKN065 OVC075 7 -7 37% 5 76.05 0.0
06 18:55 N 7 16.09 Mostly Cloudy BKN070 7 -7 37% 6 76.05 0.0
06 18:35 NW 13 16.09 Overcast OVC070 8 -7 34% 6 76.07 0.0
06 18:15 W 15 16.09 Overcast OVC070 7 -7 37% 5 76.07 0.0
06 17:55 W 19 16.09 Mostly Cloudy FEW060 BKN070 7 -7 37% 4 76.1 0.0
06 17:35 W 17 16.09 Mostly Cloudy BKN060 8 -7 34% 6 76.1 0.0
06 17:15 N 11 G 20 16.09 Overcast OVC060 7 -7 37% 5 76.12 0.0
06 16:55 NW 13 16.09 Overcast OVC060 7 -7 37% 5 76.15 0.0
06 16:35 NW 9 G 20 16.09 Overcast OVC060 7 -7 37% 5 76.15 0.0
06 16:15 Vrbl 11 G 24 16.09 Overcast OVC055 7 -7 37% 5 76.17 0.0
06 15:55 N 11 G 22 16.09 Overcast BKN050 OVC055 6 -7 39% 4 76.17 0.0
06 15:35 NW 19 16.09 Overcast BKN050 OVC055 6 -7 39% 3 76.2 0.0
06 15:15 W 15 16.09 Overcast BKN050 OVC060 5 -7 42% 2 76.2 0.0
06 14:55 NW 15 16.09 Overcast OVC050 5 -6 45% 2 76.23 0.0
06 14:35 NW 9 G 24 16.09 Overcast OVC050 5 -7 42% 3 76.23 0.0
06 14:15 NW 17 16.09 Overcast BKN049 OVC055 5 -7 42% 2 76.25 0.0
06 13:55 W 11 G 20 16.09 Overcast OVC048 4 -7 45% 2 76.25 0.0
06 13:35 NW 17 16.09 Overcast OVC047 4 -7 45% 1 76.28 0.0
06 13:15 NW 7 G 19 16.09 Overcast OVC049 4 -7 45% 2 76.28 0.0
06 12:55 NW 9 16.09 Overcast OVC048 4 -7 45% 2 76.28 0.0
06 12:35 W 7 G 20 16.09 Overcast OVC045 4 -7 45% 2 76.3 0.0
06 12:15 NW 13 G 22 16.09 Overcast OVC044 4 -6 48% 1 76.3 0.0
06 11:55 W 11 16.09 Overcast OVC044 3 -6 52% 0 76.3 0.0
06 11:35 W 13 16.09 Overcast OVC045 3 -6 52% 0 76.33 0.0
06 11:15 NW 20 16.09 Overcast OVC042 3 -6 52% -1 76.33 0.0
06 10:55 NW 13 16.09 Overcast BKN041 OVC046 3 -7 48% 0 76.33 0.0
06 10:35 Vrbl 7 G 22 16.09 Overcast SCT040 OVC050 3 -6 52% 1 76.33 0.0
06 10:15 W 17 16.09 Overcast BKN039 OVC050 3 -5 56% -1 76.33 0.0
06 09:55 NW 15 16.09 Overcast OVC039 2 -5 60% -2 76.35 0.0
06 09:35 NW 17 16.09 Overcast OVC038 2 -5 60% -2 76.33 0.0
06 09:15 NW 17 16.09 Overcast OVC037 2 -5 60% -2 76.35 0.0
06 08:55 NW 17 16.09 Overcast OVC037 1 -5 65% -3 76.35 0.0
06 08:35 NW 15 16.09 Overcast OVC037 2 -5 60% -2 76.33 0.0
06 08:15 NW 11 16.09 Overcast OVC037 1 -4 70% -2 76.33 0.0
06 07:55 NW 9 16.09 Overcast OVC036 1 -4 70% -2 76.33 0.0
06 07:35 NW 7 16.09 Overcast OVC036 1 -4 70% -1 76.3 0.0
06 07:15 NW 9 16.09 Overcast OVC037 1 -4 70% -2 76.3 0.0
06 06:55 W 7 16.09 Overcast OVC037 0 -4 75% -2 76.28 0.0
06 06:35 NW 7 16.09 Overcast OVC037 0 -5 69% -2 76.28 0.0
06 06:15 W 9 16.09 Overcast OVC037 0 -4 75% -3 76.25 0.0
06 05:55 W 9 16.09 Overcast OVC037 0 -5 69% -3 76.25 0.0
06 05:35 NW 9 16.09 Overcast OVC037 0 -5 69% -3 76.25 0.0
06 05:15 NW 9 16.09 Overcast OVC037 0 -5 69% -3 76.25 0.0
06 04:55 W 9 16.09 Overcast OVC037 0 -5 69% -3 76.25 0.0
06 04:35 N 11 16.09 NULL NULL 1 -5 65% -2 76.25 0.0
06 04:15 N 9 16.09 NULL NULL 1 -6 60% -2 76.25 0.0
06 03:55 N 11 16.09 NULL NULL 1 -5 65% -2 76.23 0.0
06 03:35 N 11 16.09 Overcast OVC040 1 -5 65% -2 76.23 0.0
06 03:15 N 11 16.09 Overcast OVC040 1 -5 65% -2 76.23 0.0
06 02:55 NW 9 16.09 Overcast OVC040 1 -5 65% -2 76.23 0.0
06 02:35 NW 9 16.09 NULL NULL 1 -5 65% -2 76.23 0.0
06 02:15 N 11 16.09 NULL NULL 1 -6 60% -2 76.23 0.0
06 01:55 N 11 16.09 NULL NULL 1 -6 60% -2 76.23 0.0
06 00:55 N 11 16.09 NULL NULL 1 -6 60% -2 76.23 0.0
06 00:35 N 13 16.09 Overcast OVC041 1 -5 65% -2 76.23 0.0
06 00:15 N 11 16.09 NULL NULL 1 -5 65% -2 76.2 0.0
05 23:55 N 13 16.09 NULL NULL 2 -5 60% -1 76.2 0.0
05 23:35 N 17 16.09 NULL NULL 2 -5 60% -2 76.2 0.0
05 23:15 N 13 16.09 NULL NULL 2 -5 60% -1 76.2 0.0
05 22:55 NW 9 16.09 Overcast OVC044 2 -5 60% -0 76.2 0.0
05 22:35 N 9 16.09 Overcast OVC046 2 -5 60% -0 76.2 0.0
05 22:15 NW 9 16.09 Overcast OVC047 2 -5 60% -0 76.17 0.0
05 21:55 N 11 16.09 Overcast OVC046 2 -5 60% -1 76.17 0.0
05 21:35 N 9 16.09 Overcast OVC047 2 -5 60% -0 76.17 0.0
05 21:15 N 9 16.09 Overcast OVC046 2 -5 60% -0 76.15 0.0
05 20:55 N 13 16.09 Overcast OVC047 3 -5 56% 0 76.12 0.0
05 20:35 NW 15 16.09 Overcast OVC049 3 -6 52% -0 76.12 0.0
05 20:15 N 15 16.09 Overcast OVC049 3 -5 56% -0 76.12 0.0
05 19:55 N 19 16.09 Overcast OVC046 3 -6 52% -1 76.1 0.0
05 19:35 NW 15 16.09 Overcast FEW042 OVC049 3 -6 52% -0 76.1 0.0
05 19:15 N 15 G 24 16.09 Overcast OVC048 3 -5 56% -0 76.1 0.0
05 18:55 N 17 G 28 16.09 Overcast OVC049 3 -5 56% -1 76.1 0.0
05 18:35 N 19 G 28 16.09 Overcast FEW041 OVC050 4 -5 52% 0 76.07 0.0
05 18:15 NW 24 16.09 Overcast OVC050 4 -6 48% -0 76.07 0.0
05 17:55 NW 19 G 28 16.09 Overcast OVC050 4 -6 48% 0 76.07 0.0
05 17:35 N 20 14.48 Light Rain OVC050 4 -5 52% 0 76.07 0.0
05 17:15 NW 22 16.09 Overcast OVC049 4 -6 48% -0 76.07 0.0
05 16:55 NW 17 G 30 16.09 Overcast OVC050 4 -6 48% 1 76.05 0.0
05 16:35 NW 19 16.09 Overcast BKN044 OVC050 4 -6 48% 0 76.05 0.0
05 16:15 NW 24 16.09 Overcast OVC048 4 -5 52% -0 76.05 0.0
05 15:55 NW 22 16.09 Overcast FEW042 OVC050 4 -5 52% -0 76.05 0.0
05 15:35 N 26 16.09 Light Rain BKN042 OVC050 4 -5 52% -0 76.02 0.0
05 15:15 NW 19 16.09 Overcast SCT042 OVC050 4 -5 52% 0 76.02 0.0
05 14:55 NW 19 16.09 Overcast SCT049 OVC055 5 -5 49% 2 76.02 0.0
05 14:35 N 19 G 39 16.09 Unknown Precip BKN049 BKN055 5 -5 49% 2 76.02 0.0
05 14:15 NW 26 16.09 Overcast BKN046 OVC050 5 -6 45% 1 76.02 0.0
05 13:55 N 19 16.09 Overcast BKN046 OVC055 4 -6 48% 0 76.02 0.0
05 13:35 NW 17 G 28 16.09 Unknown Precip BKN044 OVC050 5 -6 45% 2 76.02 0.0
05 13:15 NW 28 16.09 Unknown Precip OVC042 4 -6 48% -1 76.02 0.0
05 12:55 NW 24 16.09 Overcast OVC043 4 -6 48% -0 76 0.0
05 12:35 NW 22 16.09 Overcast OVC042 4 -6 48% -0 76 0.0
05 12:15 N 20 G 30 16.09 Unknown Precip OVC042 4 -6 48% 0 76 0.0
05 11:55 N 24 16.09 Overcast OVC042 4 -6 48% -0 76 0.0
05 11:35 N 26 16.09 Overcast BKN040 OVC046 4 -6 48% -0 75.97 0.0
05 11:15 NW 24 G 37 16.09 Unknown Precip OVC043 4 -6 48% -0 75.97 0.0
05 10:55 N 22 G 31 16.09 Unknown Precip BKN042 OVC050 4 -6 48% -0 75.97 0.0
05 10:35 N 28 16.09 Overcast OVC043 4 -6 48% -1 75.95 0.0
05 10:15 N 22 16.09 Mostly Cloudy SCT035 BKN044 4 -5 52% -0 75.95 0.0
05 09:55 N 24 16.09 Partly Cloudy FEW032 SCT040 3 -5 56% -2 75.95 0.0
05 09:35 N 17 G 26 16.09 A Few Clouds FEW033 3 -4 60% -1 75.92 0.0
05 09:15 N 17 16.09 A Few Clouds FEW029 3 -4 60% -1 75.9 0.0
05 08:55 NE 19 16.09 Fair CLR 4 -3 61% 0 75.87 0.0
05 08:35 N 22 G 33 16.09 Fair CLR 4 -3 61% -0 75.84 0.0
05 08:15 NW 28 16.09 Unknown Precip CLR 3 -3 65% -2 75.84 0.0
05 07:55 NW 22 16.09 Partly Cloudy SCT110 2 -3 70% -3 75.82 0.0
05 07:35 NW 19 16.09 Overcast OVC110 1 -3 75% -3 75.79 0.0
05 07:15 NW 24 16.09 Unknown Precip OVC110 1 -3 75% -4 75.79 0.0
05 06:55 NW 22 16.09 Overcast FEW065 OVC100 1 -3 75% -4 75.77 0.0
05 06:35 NW 20 16.09 Overcast BKN050 BKN065 OVC100 1 -4 70% -4 75.74 0.0
05 06:15 NW 20 16.09 Overcast BKN050 OVC065 1 -4 70% -4 75.74 0.0
05 05:55 NW 17 G 26 16.09 Overcast OVC055 1 -4 70% -3 75.74 0.0
05 05:35 W 19 16.09 Overcast OVC055 1 -4 70% -3 75.74 0.0
05 05:15 W 20 16.09 Overcast OVC055 1 -3 75% -4 75.74 0.0
05 04:55 W 19 16.09 Overcast BKN055 OVC090 1 -3 75% -3 75.74 0.0
05 04:35 W 13 16.09 Overcast FEW055 OVC085 1 -2 81% -2 75.74 0.0
05 04:15 W 11 16.09 NULL NULL 1 -1 87% -2 75.74 0.0
05 03:55 W 11 16.09 NULL NULL -1 -1 100% -4 75.74 0.0
05 03:35 W 9 16.09 Overcast SCT065 OVC080 -1 -1 100% -4 75.72 0.0
05 03:15 W 7 16.09 NULL NULL -2 -2 100% -4 75.72 0.0
05 02:55 SW 7 16.09 Partly Cloudy FEW065 SCT085 -3 -3 100% -6 75.72 0.0
05 02:35 Calm 16.09 A Few Clouds FEW060 -2 -3 93% 75.72 0.0
05 02:15 Calm 16.09 NULL NULL 1 -2 81% 75.74 0.0
05 01:55 NE 6 16.09 NULL NULL 2 -2 75% 75.74 0.0
05 01:35 Calm 16.09 Overcast SCT070 OVC080 2 -1 81% 75.72 0.0
05 01:15 Calm 16.09 Overcast OVC075 2 -1 81% 75.72 0.0
05 00:55 Calm 16.09 NULL NULL 2 -1 81% 75.72 0.0
05 00:35 Calm 16.09 Overcast FEW060 OVC080 3 -1 75% 75.72 0.0
05 00:15 NE 6 16.09 Overcast FEW044 FEW050 OVC080 3 -1 75% 75.69 0.0
04 23:55 NE 7 16.09 Overcast FEW044 SCT049 OVC075 3 -1 75% 1 75.69 0.0
04 23:35 Calm 16.09 Overcast FEW044 SCT065 OVC075 3 -1 75% 75.67 0.0
04 23:15 NE 6 16.09 Overcast FEW043 BKN060 OVC075 3 -1 75% 75.69 0.0
04 22:55 NE 9 16.09 NULL NULL 4 -2 65% 2 75.67 0.0
04 22:35 N 11 16.09 NULL NULL 5 -4 53% 3 75.67 0.0
04 22:15 N 20 16.09 NULL NULL 5 -5 49% 1 75.64 0.0
04 21:55 N 15 16.09 Overcast BKN048 OVC060 5 -5 49% 2 75.64 0.0
04 21:35 N 15 16.09 Overcast BKN049 BKN055 OVC065 5 -5 49% 2 75.62 0.0
04 21:15 N 17 16.09 Overcast SCT055 BKN065 OVC075 6 -5 46% 3 75.59 0.0
04 20:55 N 19 G 31 16.09 Overcast BKN055 OVC070 6 -6 42% 3 75.57 0.0
04 20:15 NW 20 G 31 16.09 Overcast BKN060 BKN075 OVC080 7 -6 39% 4 75.54 0.0
04 19:55 NW 26 16.09 Overcast SCT065 OVC080 7 -7 37% 3 75.51 0.0
04 19:35 N 24 G 35 16.09 Overcast BKN065 OVC080 7 -7 37% 4 75.51 0.0
04 19:15 NW 24 G 37 16.09 Overcast SCT065 OVC080 7 -6 39% 4 75.51 0.0
04 18:55 NW 31 G 43 16.09 Overcast SCT065 OVC075 8 -7 34% 4 75.51 0.0
04 18:35 NW 31 G 44 16.09 Overcast BKN065 OVC075 8 -6 37% 4 75.51 0.0
04 18:15 NW 35 16.09 Overcast and Breezy OVC070 8 -6 37% 4 75.49 0.0
04 17:55 NW 39 G 50 16.09 Overcast and Breezy OVC070 8 -6 37% 4 75.49 0.0
04 17:35 NW 44 G 54 16.09 Overcast and Windy SCT065 OVC075 8 -6 37% 3 75.46 0.0
04 17:15 NW 41 G 54 16.09 Mostly Cloudy and Breezy SCT060 BKN075 9 -6 34% 5 75.46 0.0
04 16:55 NW 37 G 56 16.09 Mostly Cloudy and Breezy SCT060 BKN075 9 -5 37% 5 75.44 0.0
04 16:35 NW 46 G 61 16.09 Mostly Cloudy and Windy BKN060 BKN070 8 -5 40% 3 75.44 0.0
04 16:15 NW 41 G 54 16.09 Mostly Cloudy and Breezy SCT060 BKN070 9 -5 37% 5 75.44 0.0
04 15:55 NW 43 G 61 16.09 Overcast and Windy BKN060 OVC070 9 -5 37% 5 75.44 0.0
04 15:35 NW 35 G 52 16.09 Overcast and Breezy SCT055 OVC070 9 -5 37% 5 75.44 0.0
04 15:15 NW 37 G 56 16.09 Mostly Cloudy and Breezy SCT055 BKN070 8 -5 40% 4 75.44 0.0
04 14:55 NW 44 G 59 16.09 Mostly Cloudy and Windy SCT055 BKN070 9 -4 40% 5 75.41 0.0
04 14:35 NW 48 G 59 16.09 Overcast and Windy FEW045 BKN055 OVC065 8 -5 40% 3 75.41 0.0
04 14:15 NW 43 G 54 16.09 Overcast and Windy FEW047 BKN060 OVC070 8 -3 46% 3 75.44 0.0
04 13:55 NW 35 G 54 16.09 Overcast and Breezy BKN055 OVC065 7 -4 46% 3 75.44 0.0
04 13:35 NW 35 G 48 16.09 Overcast and Breezy BKN050 OVC055 7 -5 43% 3 75.44 0.0
04 13:15 NW 37 16.09 Overcast and Breezy OVC055 7 -5 43% 3 75.41 0.0
04 12:55 NW 37 G 52 16.09 Overcast and Breezy BKN050 OVC055 7 -6 39% 3 75.41 0.0
04 12:35 NW 37 G 54 16.09 Overcast and Breezy OVC050 7 -6 39% 3 75.41 0.0
04 12:15 NW 37 G 56 16.09 Overcast and Breezy OVC049 7 -5 43% 3 75.39 0.0
04 11:55 NW 37 G 54 16.09 Overcast and Breezy OVC046 7 -4 46% 3 75.39 0.0
04 11:35 NW 41 16.09 Overcast and Breezy OVC045 6 -4 49% 1 75.36 0.0
04 11:15 NW 41 G 52 16.09 Overcast and Breezy BKN044 OVC049 6 -3 53% 1 75.34 0.0
04 10:55 NW 39 G 52 16.09 Overcast and Breezy BKN041 OVC048 6 -3 53% 1 75.34 0.0
04 10:35 NW 39 G 54 16.09 Overcast and Breezy OVC041 6 -3 53% 1 75.34 0.0
04 10:15 NW 39 G 57 16.09 Overcast and Breezy OVC039 6 -2 57% 1 75.31 0.0
04 09:55 NW 35 G 48 16.09 Overcast and Breezy OVC037 6 -2 57% 1 75.29 0.0
04 09:35 NW 35 G 56 16.09 Mostly Cloudy and Breezy BKN033 BKN041 7 -1 57% 3 75.29 0.0
04 09:15 NW 41 16.09 Mostly Cloudy and Breezy BKN030 6 -1 61% 1 75.26 0.0
04 08:55 NW 37 G 52 16.09 Partly Cloudy and Breezy SCT030 6 -1 61% 1 75.26 0.0
04 08:35 NW 41 16.09 Fair and Breezy CLR 6 -1 61% 1 75.23 0.0
04 08:15 NW 33 G 50 16.09 Fair and Breezy CLR 6 -1 61% 1 75.21 0.0
04 07:55 NW 35 16.09 Fair and Breezy CLR 5 -1 66% 0 75.21 0.0
04 07:35 NW 30 G 43 16.09 Fair CLR 4 -1 70% -1 75.16 0.0
04 07:15 NW 30 G 43 16.09 Fair CLR 4 -1 70% -1 75.13 0.0
04 06:55 NW 35 G 52 16.09 Fair and Breezy CLR 4 -1 70% -1 75.11 0.0
04 06:35 NW 28 G 50 16.09 Fair CLR 4 0 75% -1 75.11 0.0
04 06:15 NW 30 G 44 16.09 Fair CLR 5 0 70% 0 75.08 0.0
04 05:55 NW 46 G 59 16.09 Mostly Cloudy and Windy BKN110 6 -1 61% 1 75.03 0.0
04 05:35 NW 44 G 63 16.09 Mostly Cloudy and Windy BKN110 7 0 61% 2 75.01 0.0
04 05:15 NW 41 16.09 Partly Cloudy and Breezy SCT110 9 0 54% 5 74.96 0.0
04 04:55 NW 35 16.09 Unknown Precip and Breezy SCT110 9 3 66% 5 74.93 0.0
04 04:35 W 20 16.09 Mostly Cloudy FEW065 FEW075 BKN100 8 4 76% 5 74.88 0.0
04 04:15 W 22 16.09 Overcast FEW065 OVC095 8 5 82% 5 74.88 0.0
04 03:55 W 19 16.09 Mostly Cloudy BKN090 8 4 76% 5 74.85 0.0
04 03:35 W 15 16.09 Mostly Cloudy BKN095 6 4 87% 3 74.85 0.0
04 03:15 W 11 16.09 A Few Clouds FEW095 7 4 81% 5 74.85 0.0
Date Time (cdt) Wind (kph) Vis. (km) Weather Sky Cond. Air Dwpt Max. Min. Relative Humidity Wind Chill (°C) Heat Index (°C) altimeter (cm) sea level (mb) 1 hr 3 hr 6 hr
6 hour
Temperature (ºC) Pressure Precipitation (cm)